Time;durP1;ratioP1;P1;durP2;ratioP2;P2;SDS_P1;SDS_P2;PMS_P1;PMS_P2;Temp;Humidity;BMP_temperature;BMP_pressure;BME280_temperature;BME280_humidity;BME280_pressure;Samples;Min_cycle;Max_cycle;Signal;HPM_P1;HPM_P2
2022/08/28 00:00:15;;;;;;;11.88;8.70;;;;;;;18.37;100.00;97700.32;1740932;82;22015;-90
2022/08/28 00:02:45;;;;;;;17.17;9.78;;;;;;;18.37;100.00;97701.69;1740557;81;21007;-91
2022/08/28 00:05:11;;;;;;;12.98;7.47;;;;;;;18.36;100.00;97700.89;1741026;81;20957;-85
2022/08/28 00:07:37;;;;;;;11.73;7.28;;;;;;;18.38;100.00;97700.58;1740390;82;20952;-90
2022/08/28 00:10:05;;;;;;;14.15;8.35;;;;;;;18.33;100.00;97705.13;1739535;81;20950;-90
2022/08/28 00:12:31;;;;;;;14.50;8.35;;;;;;;18.29;100.00;97697.35;1746615;81;21012;-85
2022/08/28 00:14:57;;;;;;;11.25;8.13;;;;;;;18.27;100.00;97689.20;1766112;81;20867;-91
2022/08/28 00:17:23;;;;;;;11.75;8.13;;;;;;;18.28;100.00;97688.87;1755071;80;20951;-90
2022/08/28 00:19:49;;;;;;;9.15;7.33;;;;;;;18.26;100.00;97690.35;1746613;81;20999;-91
2022/08/28 00:22:15;;;;;;;10.43;7.15;;;;;;;18.21;100.00;97687.27;1740298;81;21008;-85
2022/08/28 00:24:43;;;;;;;13.88;8.10;;;;;;;18.17;100.00;97684.95;1721272;81;21033;-84
2022/08/28 00:29:53;;;;;;;15.45;8.30;;;;;;;18.12;100.00;97688.49;1740556;81;21410;-85
2022/08/28 00:32:22;;;;;;;10.15;7.03;;;;;;;18.11;100.00;97690.41;1766140;81;21476;-89
2022/08/28 00:34:47;;;;;;;12.63;7.75;;;;;;;18.13;100.00;97684.03;1766220;81;21387;-91
2022/08/28 00:37:13;;;;;;;11.70;7.87;;;;;;;18.13;100.00;97684.61;1727571;80;21547;-90
2022/08/28 00:39:39;;;;;;;16.07;8.10;;;;;;;18.11;100.00;97682.17;1739351;81;20859;-85
2022/08/28 00:42:05;;;;;;;14.50;7.97;;;;;;;18.07;100.00;97679.89;1740589;81;21046;-85
2022/08/28 00:44:31;;;;;;;13.78;8.00;;;;;;;18.02;100.00;97691.84;1751304;81;21411;-91
2022/08/28 00:46:58;;;;;;;13.40;8.13;;;;;;;18.01;100.00;97692.99;1756762;80;21421;-90
2022/08/28 00:49:31;;;;;;;11.12;8.28;;;;;;;18.02;100.00;97681.45;1758799;81;21257;-85
2022/08/28 00:52:04;;;;;;;15.35;9.03;;;;;;;17.99;100.00;97683.51;1758292;81;20977;-90
2022/08/28 00:54:32;;;;;;;15.70;7.80;;;;;;;17.96;100.00;97681.45;1721688;82;20976;-85
2022/08/28 00:57:01;;;;;;;18.03;9.43;;;;;;;17.98;100.00;97685.45;1758689;81;21501;-85
2022/08/28 00:59:27;;;;;;;13.40;7.95;;;;;;;17.97;100.00;97685.22;1749702;81;21018;-85
2022/08/28 01:01:55;;;;;;;13.62;8.53;;;;;;;17.94;100.00;97685.08;1750847;81;21290;-85
2022/08/28 01:04:23;;;;;;;11.15;8.18;;;;;;;17.93;100.00;97682.91;1765050;81;20986;-91
2022/08/28 01:06:52;;;;;;;13.68;8.85;;;;;;;17.92;100.00;97682.67;1748554;81;20991;-90
2022/08/28 01:09:20;;;;;;;12.60;7.45;;;;;;;17.90;100.00;97673.19;1717178;82;20997;-90
2022/08/28 01:11:47;;;;;;;17.37;8.53;;;;;;;17.88;100.00;97669.42;1741495;81;21455;-86
2022/08/28 01:14:13;;;;;;;10.75;8.78;;;;;;;17.87;100.00;97665.66;1718459;81;21107;-90
2022/08/28 01:16:41;;;;;;;11.30;8.38;;;;;;;17.87;100.00;97671.94;1742767;80;21011;-85
2022/08/28 01:19:12;;;;;;;14.28;8.90;;;;;;;17.86;100.00;97671.70;1755960;80;20971;-90
2022/08/28 01:21:46;;;;;;;15.43;8.05;;;;;;;17.81;100.00;97678.75;1762067;81;21041;-85
2022/08/28 01:24:15;;;;;;;13.65;8.63;;;;;;;17.78;100.00;97682.16;1760914;81;21029;-85
2022/08/28 01:26:41;;;;;;;;;;;;;;;17.74;100.00;97682.02;1767119;81;21291;-84
2022/08/28 01:29:07;;;;;;;12.73;8.88;;;;;;;17.69;100.00;97679.47;1766006;81;20143;-85
2022/08/28 01:31:33;;;;;;;12.70;7.05;;;;;;;17.63;100.00;97682.16;1748551;81;21031;-89
2022/08/28 01:33:59;;;;;;;11.95;8.43;;;;;;;17.58;100.00;97685.09;1754852;81;21445;-85
2022/08/28 01:36:27;;;;;;;9.98;7.62;;;;;;;17.51;100.00;97690.86;1754225;81;20931;-90
2022/08/28 01:39:04;;;;;;;11.57;8.78;;;;;;;17.47;100.00;97687.99;1765302;80;21399;-85
2022/08/28 01:41:30;;;;;;;11.80;8.45;;;;;;;17.41;100.00;97695.59;1766016;80;20975;-91
2022/08/28 01:43:56;;;;;;;13.83;8.90;;;;;;;17.39;100.00;97695.69;1766182;81;21395;-90
2022/08/28 01:46:21;;;;;;;12.30;8.33;;;;;;;17.34;100.00;97688.45;1750581;80;20973;-85
2022/08/28 01:48:48;;;;;;;14.13;8.48;;;;;;;17.33;100.00;97693.70;1727170;81;20964;-89
2022/08/28 01:51:14;;;;;;;11.97;7.95;;;;;;;17.34;100.00;97697.24;1701524;83;21019;-84
2022/08/28 01:53:40;;;;;;;11.60;8.00;;;;;;;17.30;100.00;97698.48;1765953;81;20945;-84
2022/08/28 01:56:10;;;;;;;11.90;7.78;;;;;;;17.26;100.00;97701.66;1751502;81;20975;-86
2022/08/28 01:58:36;;;;;;;14.85;8.35;;;;;;;17.19;100.00;97704.91;1752661;81;21008;-90
2022/08/28 02:01:02;;;;;;;16.07;8.83;;;;;;;17.16;100.00;97707.48;1741061;81;21050;-86
2022/08/28 02:03:29;;;;;;;12.47;8.20;;;;;;;17.16;100.00;97706.13;1740728;81;21090;-90
2022/08/28 02:05:56;;;;;;;12.00;8.58;;;;;;;17.14;100.00;97704.28;1740815;81;20987;-84
2022/08/28 02:08:22;;;;;;;16.85;9.45;;;;;;;17.15;100.00;97700.41;1744626;81;20976;-91
2022/08/28 02:10:48;;;;;;;12.73;8.50;;;;;;;17.11;100.00;97698.91;1738767;81;20931;-91
2022/08/28 02:13:14;;;;;;;13.85;8.98;;;;;;;17.10;100.00;97700.62;1744043;81;20999;-90
2022/08/28 02:15:41;;;;;;;11.57;8.38;;;;;;;17.09;100.00;97695.71;1739062;81;21502;-84
2022/08/28 02:18:07;;;;;;;17.07;8.75;;;;;;;17.12;100.00;97710.09;1740901;81;20967;-85
2022/08/28 02:20:33;;;;;;;13.78;9.33;;;;;;;17.10;100.00;97698.68;1752130;81;20843;-91
2022/08/28 02:22:59;;;;;;;15.85;9.58;;;;;;;17.10;100.00;97707.46;1766615;81;20902;-85
2022/08/28 02:25:25;;;;;;;16.05;9.38;;;;;;;17.07;100.00;97704.80;1783528;79;20981;-90
2022/08/28 02:27:52;;;;;;;14.73;8.65;;;;;;;17.09;100.00;97704.46;1766283;81;21749;-91
2022/08/28 02:30:18;;;;;;;16.25;8.95;;;;;;;17.07;100.00;97704.80;1766360;81;20938;-90
2022/08/28 02:32:44;;;;;;;14.85;9.88;;;;;;;17.06;100.00;97702.39;1766156;81;21033;-89
2022/08/28 02:35:12;;;;;;;15.48;8.35;;;;;;;17.02;100.00;97700.09;1766518;81;20973;-85
2022/08/28 02:37:39;;;;;;;11.90;9.33;;;;;;;16.99;100.00;97697.42;1766319;79;21041;-91
2022/08/28 02:40:07;;;;;;;18.02;9.98;;;;;;;16.97;100.00;97689.31;1766655;81;21119;-87
2022/08/28 02:42:33;;;;;;;13.10;9.10;;;;;;;16.95;100.00;97685.55;1766542;81;21410;-84
2022/08/28 02:44:59;;;;;;;13.85;8.85;;;;;;;16.95;100.00;97680.64;1745136;81;21655;-85
2022/08/28 02:47:25;;;;;;;13.13;8.58;;;;;;;16.96;100.00;97682.24;1757673;81;20941;-90
2022/08/28 02:49:52;;;;;;;12.03;8.55;;;;;;;16.96;100.00;97689.08;1766413;81;20958;-91
2022/08/28 02:52:18;;;;;;;15.08;8.80;;;;;;;16.96;100.00;97689.08;1765730;81;21664;-85
2022/08/28 02:54:46;;;;;;;11.63;9.05;;;;;;;16.97;100.00;97696.16;1766087;81;20985;-85
2022/08/28 02:57:13;;;;;;;14.73;8.77;;;;;;;16.94;100.00;97689.98;1765582;81;21086;-91
2022/08/28 02:59:39;;;;;;;13.83;8.23;;;;;;;16.91;100.00;97686.75;1765660;81;20977;-84
2022/08/28 03:02:05;;;;;;;10.80;8.30;;;;;;;16.88;100.00;97687.98;1721126;82;20965;-84
2022/08/28 03:04:36;;;;;;;11.00;8.63;;;;;;;16.84;100.00;97693.33;1736143;81;21773;-90
2022/08/28 03:07:03;;;;;;;12.33;8.43;;;;;;;16.82;100.00;97700.23;1742656;81;20991;-90
2022/08/28 03:09:29;;;;;;;12.85;9.78;;;;;;;16.76;100.00;97697.46;1742148;81;21027;-91
2022/08/28 03:11:55;;;;;;;17.50;9.08;;;;;;;16.68;100.00;97710.01;1739051;81;20923;-90
2022/08/28 03:14:21;;;;;;;12.80;8.85;;;;;;;16.64;100.00;97710.41;1720969;82;20964;-87
2022/08/28 03:16:47;;;;;;;12.63;9.00;;;;;;;16.59;100.00;97715.50;1737756;80;21866;-91
2022/08/28 03:19:13;;;;;;;10.93;8.75;;;;;;;16.58;100.00;97712.53;1741049;81;20963;-84
2022/08/28 03:21:39;;;;;;;12.07;8.75;;;;;;;16.58;100.00;97718.57;1744720;81;21349;-84
2022/08/28 03:24:05;;;;;;;14.85;9.28;;;;;;;16.57;100.00;97721.04;1750158;81;20941;-91
2022/08/28 03:26:31;;;;;;;13.28;9.45;;;;;;;16.56;100.00;97722.17;1740034;80;21448;-84
2022/08/28 03:28:58;;;;;;;12.23;9.10;;;;;;;16.52;100.00;97722.59;1750666;81;21152;-91
2022/08/28 03:31:26;;;;;;;13.85;8.80;;;;;;;16.51;100.00;97725.90;1732948;80;20960;-85
2022/08/28 03:33:52;;;;;;;12.73;8.30;;;;;;;16.54;100.00;97725.23;1720376;81;20996;-86
2022/08/28 03:36:22;;;;;;;12.23;9.00;;;;;;;16.59;100.00;97725.08;1693044;83;22126;-85
2022/08/28 03:38:49;;;;;;;11.15;8.53;;;;;;;16.61;100.00;97727.48;1765815;81;21450;-91
2022/08/28 03:41:19;;;;;;;15.58;8.90;;;;;;;16.60;100.00;97732.72;1766146;81;21310;-84
2022/08/28 03:43:45;;;;;;;13.93;9.48;;;;;;;16.58;100.00;97739.89;1766042;81;21028;-91
2022/08/28 03:46:15;;;;;;;14.13;9.35;;;;;;;16.57;100.00;97741.55;1765298;79;20947;-85
2022/08/28 03:48:41;;;;;;;13.32;8.88;;;;;;;16.56;100.00;97747.59;1753260;81;20950;-85
2022/08/28 03:51:15;;;;;;;15.50;9.55;;;;;;;16.54;100.00;97746.31;1736564;80;21024;-86
2022/08/28 03:53:42;;;;;;;13.00;8.85;;;;;;;16.52;100.00;97753.48;1743823;81;21320;-91
2022/08/28 03:56:10;;;;;;;11.65;9.75;;;;;;;16.52;100.00;97754.85;1750396;80;21411;-91
2022/08/28 03:58:37;;;;;;;14.23;8.75;;;;;;;16.48;100.00;97751.14;1753143;81;20997;-86
2022/08/28 04:01:03;;;;;;;12.05;8.55;;;;;;;16.47;100.00;97750.10;1753760;81;20992;-90
2022/08/28 04:03:29;;;;;;;14.40;9.25;;;;;;;16.42;100.00;97759.86;1740798;82;20959;-88
2022/08/28 04:05:55;;;;;;;14.40;9.80;;;;;;;16.43;100.00;97762.83;1741128;82;21601;-91
2022/08/28 04:08:22;;;;;;;13.10;9.20;;;;;;;16.47;100.00;97768.68;1749148;81;20993;-84
2022/08/28 04:10:48;;;;;;;13.70;8.20;;;;;;;16.50;100.00;97772.16;1767645;80;20944;-84
2022/08/28 04:13:15;;;;;;;15.23;8.55;;;;;;;16.53;100.00;97769.33;1766219;79;21344;-85
2022/08/28 04:15:41;;;;;;;13.90;9.00;;;;;;;16.55;100.00;97770.59;1766486;81;20915;-85
2022/08/28 04:18:09;;;;;;;10.98;8.68;;;;;;;16.54;100.00;97774.47;1760774;81;21102;-91
2022/08/28 04:20:35;;;;;;;12.70;8.55;;;;;;;16.53;100.00;97769.33;1742314;81;21447;-90
2022/08/28 04:23:04;;;;;;;15.65;9.78;;;;;;;16.51;100.00;97769.66;1740982;82;20952;-86
2022/08/28 04:25:30;;;;;;;10.75;8.38;;;;;;;16.47;100.00;97771.41;1733334;82;20994;-88
2022/08/28 04:27:56;;;;;;;14.85;9.10;;;;;;;16.45;100.00;97772.88;1725673;81;20995;-89
2022/08/28 04:30:22;;;;;;;10.72;8.30;;;;;;;16.39;100.00;97770.86;1739568;81;20978;-90
2022/08/28 04:32:48;;;;;;;12.88;8.85;;;;;;;16.40;100.00;97771.09;1743539;81;21041;-84
2022/08/28 04:35:15;;;;;;;13.72;9.43;;;;;;;16.39;100.00;97763.22;1742728;81;20896;-88
2022/08/28 04:37:42;;;;;;;11.48;9.48;;;;;;;16.34;100.00;97762.84;1743133;81;20968;-85
2022/08/28 04:40:09;;;;;;;15.00;10.40;;;;;;;16.35;100.00;97767.18;1766302;80;21391;-91
2022/08/28 04:42:36;;;;;;;11.08;9.38;;;;;;;16.37;100.00;97771.76;1766473;81;21858;-90
2022/08/28 04:45:03;;;;;;;14.93;9.63;;;;;;;16.43;100.00;97775.14;1763523;81;21005;-91
2022/08/28 04:47:29;;;;;;;14.53;8.48;;;;;;;16.43;100.00;97765.56;1733860;81;21031;-89
2022/08/28 04:49:55;;;;;;;12.33;9.78;;;;;;;16.43;100.00;97766.94;1745122;81;20942;-85
2022/08/28 04:52:22;;;;;;;18.70;10.78;;;;;;;16.47;100.00;97765.95;1766474;79;20990;-91
2022/08/28 04:54:48;;;;;;;15.08;10.60;;;;;;;16.53;100.00;97769.33;1735553;81;21348;-85
2022/08/28 04:57:14;;;;;;;17.57;9.80;;;;;;;16.56;100.00;97770.84;1735341;81;21066;-90
2022/08/28 04:59:43;;;;;;;15.05;9.88;;;;;;;16.64;100.00;97769.22;1740986;81;20996;-85
2022/08/28 05:02:08;;;;;;;11.50;7.97;;;;;;;16.70;100.00;97771.26;1744322;80;21464;-91
2022/08/28 05:04:34;;;;;;;12.55;7.90;;;;;;;16.87;100.00;97769.84;1713077;81;20971;-85
2022/08/28 05:07:00;;;;;;;13.30;7.78;;;;;;;17.08;100.00;97765.81;1766397;80;21109;-89
2022/08/28 05:09:26;;;;;;;14.53;9.20;;;;;;;17.23;100.00;97769.95;1738544;81;21340;-84
2022/08/28 05:11:52;;;;;;;13.48;8.65;;;;;;;17.32;100.00;97759.76;1723830;80;21012;-87
2022/08/28 05:14:20;;;;;;;12.73;8.80;;;;;;;17.39;100.00;97761.42;1723888;79;20876;-90
2022/08/28 05:16:49;;;;;;;12.37;7.90;;;;;;;17.36;100.00;97758.78;1764912;81;20950;-91
2022/08/28 05:19:16;;;;;;;15.08;8.60;;;;;;;17.44;100.00;97757.94;1765900;81;21292;-85
2022/08/28 05:21:43;;;;;;;11.48;7.65;;;;;;;17.53;100.00;97755.72;1762812;81;21025;-84
2022/08/28 05:24:09;;;;;;;12.90;9.10;;;;;;;17.60;100.00;97752.66;1753702;80;20971;-85
2022/08/28 05:26:35;;;;;;;16.07;8.65;;;;;;;17.70;100.00;97746.85;1740851;81;21520;-90
2022/08/28 05:29:01;;;;;;;15.83;7.67;;;;;;;17.85;100.00;97745.44;1730490;82;20984;-89
2022/08/28 05:31:28;;;;;;;15.43;8.90;;;;;;;17.97;100.00;97746.90;1750915;81;21181;-91
2022/08/28 05:33:54;;;;;;;12.00;8.48;;;;;;;18.05;100.00;97747.97;1752610;81;20994;-85
2022/08/28 05:36:21;;;;;;;9.48;7.72;;;;;;;18.08;100.00;97742.38;1742024;81;20899;-85
2022/08/28 05:38:49;;;;;;;15.25;7.65;;;;;;;18.15;100.00;97742.07;1732325;82;20989;-85
2022/08/28 05:41:19;;;;;;;14.83;8.18;;;;;;;18.21;100.00;97736.63;1745074;81;21418;-89
2022/08/28 05:43:46;;;;;;;12.82;8.08;;;;;;;18.35;100.00;97738.27;1749715;81;21182;-85
2022/08/28 05:46:12;;;;;;;11.08;7.25;;;;;;;18.45;100.00;97744.13;1747318;81;20984;-85
2022/08/28 05:48:38;;;;;;;13.13;7.33;;;;;;;18.55;100.00;97740.98;1749704;81;20942;-85
2022/08/28 05:51:13;;;;;;;13.35;7.95;;;;;;;18.71;100.00;97743.89;1738339;79;20869;-91
2022/08/28 05:53:41;;;;;;;13.90;8.15;;;;;;;18.95;100.00;97740.40;1753117;81;20939;-92
2022/08/28 05:56:09;;;;;;;10.13;6.85;;;;;;;19.33;100.00;97734.61;1748954;80;21431;-91
2022/08/28 05:58:36;;;;;;;7.08;6.37;;;;;;;19.53;99.61;97738.94;1750442;81;21037;-86
2022/08/28 06:01:08;;;;;;;8.13;5.53;;;;;;;19.73;99.03;97728.39;1750387;81;21014;-85
2022/08/28 06:03:36;;;;;;;9.85;6.30;;;;;;;19.94;98.04;97724.92;1758184;79;38999;-85
2022/08/28 06:06:03;;;;;;;9.23;7.10;;;;;;;20.06;96.86;97720.53;1745838;81;21021;-91
2022/08/28 06:08:30;;;;;;;15.00;6.95;;;;;;;20.10;97.67;97720.08;1733168;82;21161;-85
2022/08/28 06:10:56;;;;;;;12.40;6.85;;;;;;;20.14;96.54;97727.84;1737452;81;20959;-91
2022/08/28 06:13:22;;;;;;;13.20;7.00;;;;;;;20.21;95.54;97732.97;1749146;81;20994;-86
2022/08/28 06:15:48;;;;;;;12.00;7.03;;;;;;;20.25;95.17;97738.56;1762041;81;21400;-85
2022/08/28 06:18:15;;;;;;;11.28;6.47;;;;;;;20.38;94.84;97742.88;1745938;81;21435;-92
2022/08/28 06:20:44;;;;;;;10.72;7.83;;;;;;;20.54;93.22;97742.38;1740378;81;21286;-91
2022/08/28 06:23:11;;;;;;;;;;;;;;;20.64;93.33;97732.02;1766937;80;21040;-91
2022/08/28 06:25:41;;;;;;;14.80;7.65;;;;;;;20.81;92.31;97728.34;1748191;81;20192;-85
2022/08/28 06:28:07;;;;;;;12.73;6.58;;;;;;;20.91;92.03;97733.91;1754777;81;21450;-91
2022/08/28 06:30:37;;;;;;;17.87;8.58;;;;;;;21.07;91.74;97735.30;1734457;81;21595;-86
2022/08/28 06:33:04;;;;;;;12.03;6.50;;;;;;;21.28;90.90;97730.94;1763158;81;21121;-86
2022/08/28 06:35:30;;;;;;;11.45;5.90;;;;;;;21.44;88.92;97731.70;1763375;81;20994;-90
2022/08/28 06:37:59;;;;;;;8.48;5.42;;;;;;;21.44;88.33;97731.70;1763049;80;20971;-85
2022/08/28 06:40:25;;;;;;;8.23;6.17;;;;;;;21.50;89.14;97737.16;1751897;81;21038;-85
2022/08/28 06:42:51;;;;;;;10.72;6.12;;;;;;;21.66;88.32;97738.52;1761688;81;21052;-91
2022/08/28 06:45:18;;;;;;;10.60;7.47;;;;;;;21.78;86.03;97738.97;1731174;81;21443;-91
2022/08/28 06:47:45;;;;;;;15.80;12.20;;;;;;;21.74;86.66;97729.83;1738895;79;20950;-91
2022/08/28 06:50:11;;;;;;;14.85;9.33;;;;;;;21.89;86.62;97734.52;1717360;81;21407;-91
2022/08/28 06:52:37;;;;;;;8.03;5.92;;;;;;;22.06;86.90;97729.95;1743383;81;20875;-91
2022/08/28 06:55:03;;;;;;;11.55;6.60;;;;;;;22.23;85.85;97727.38;1738826;81;20884;-91
2022/08/28 06:57:30;;;;;;;9.48;6.00;;;;;;;22.50;84.90;97732.45;1761819;80;21018;-91
2022/08/28 06:59:57;;;;;;;7.95;5.40;;;;;;;23.04;86.01;97737.81;1757516;81;20952;-85
2022/08/28 07:02:23;;;;;;;11.25;6.10;;;;;;;23.44;84.19;97743.41;1763657;79;22132;-86
2022/08/28 07:04:52;;;;;;;12.95;7.75;;;;;;;23.65;82.33;97736.05;1765350;79;20858;-86
2022/08/28 07:07:19;;;;;;;9.70;6.50;;;;;;;23.65;81.90;97741.58;1726940;81;20996;-85
2022/08/28 07:09:46;;;;;;;16.90;6.05;;;;;;;23.86;80.59;97734.20;1761372;81;21851;-92
2022/08/28 07:12:14;;;;;;;12.45;7.87;;;;;;;23.83;78.36;97737.69;1728162;80;21048;-86
2022/08/28 07:14:40;;;;;;;13.65;7.03;;;;;;;23.64;78.54;97733.88;1741037;81;21018;-91
2022/08/28 07:17:06;;;;;;;11.00;6.20;;;;;;;23.49;78.98;97730.64;1752100;81;20950;-85
2022/08/28 07:19:32;;;;;;;13.88;6.00;;;;;;;23.36;79.43;97727.88;1735937;81;22445;-86
2022/08/28 07:21:58;;;;;;;7.87;5.67;;;;;;;23.26;78.74;97735.42;1763368;81;21203;-90
2022/08/28 07:24:24;;;;;;;12.58;6.80;;;;;;;22.98;79.30;97732.36;1750729;81;21041;-91
2022/08/28 07:26:51;;;;;;;15.15;6.75;;;;;;;22.75;81.07;97729.58;1744100;81;21054;-85
2022/08/28 07:29:17;;;;;;;10.28;7.28;;;;;;;22.60;82.48;97727.70;1739448;81;20955;-87
2022/08/28 07:31:47;;;;;;;18.90;8.20;;;;;;;22.56;81.87;97722.72;1751662;81;21394;-85
2022/08/28 07:34:14;;;;;;;10.85;5.97;;;;;;;22.42;82.07;97728.75;1753843;81;21368;-85
2022/08/28 07:36:40;;;;;;;9.63;6.37;;;;;;;22.33;82.41;97730.13;1752650;81;21044;-91
2022/08/28 07:39:07;;;;;;;16.67;6.85;;;;;;;22.15;84.57;97722.30;1766137;81;20955;-90
2022/08/28 07:41:34;;;;;;;13.60;6.35;;;;;;;22.06;86.16;97723.64;1754915;81;20973;-86
2022/08/28 07:46:45;;;;;;;16.48;6.83;;;;;;;21.94;86.10;97728.11;1755015;81;21784;-87
2022/08/28 07:49:11;;;;;;;11.25;6.05;;;;;;;21.90;86.16;97720.94;1738982;81;20931;-90
2022/08/28 07:51:37;;;;;;;14.90;6.83;;;;;;;21.86;86.04;97723.59;1740904;81;20944;-92
2022/08/28 07:54:03;;;;;;;10.63;7.17;;;;;;;21.81;86.40;97721.14;1740718;82;21001;-86
2022/08/28 07:56:30;;;;;;;17.40;8.65;;;;;;;21.78;86.62;97724.60;1737702;81;21353;-87
2022/08/28 07:58:57;;;;;;;21.90;12.00;;;;;;;21.67;87.44;97724.37;1745635;81;21921;-92
2022/08/28 08:01:23;;;;;;;18.27;11.22;;;;;;;21.55;88.51;97725.88;1738111;81;21046;-92
2022/08/28 08:03:50;;;;;;;13.53;9.85;;;;;;;21.48;89.01;97720.77;1730150;82;21368;-85
2022/08/28 08:06:16;;;;;;;11.93;8.10;;;;;;;21.45;89.59;97722.84;1739614;81;21462;-85
2022/08/28 08:08:42;;;;;;;12.23;7.17;;;;;;;21.44;89.58;97720.67;1752928;80;21470;-86
2022/08/28 08:11:10;;;;;;;10.95;6.92;;;;;;;21.49;89.69;97725.13;1735283;81;21122;-89
2022/08/28 08:13:37;;;;;;;8.80;6.22;;;;;;;21.55;89.62;97730.59;1765999;80;28238;-90
2022/08/28 08:16:09;;;;;;;13.18;9.03;;;;;;;21.56;89.72;97731.61;1766293;80;21026;-87
2022/08/28 08:18:38;;;;;;;11.38;8.05;;;;;;;21.61;89.19;97735.45;1766016;80;21399;-85
2022/08/28 08:21:06;;;;;;;16.37;9.03;;;;;;;21.53;89.43;97732.30;1765448;80;21357;-86
2022/08/28 08:23:37;;;;;;;14.50;6.60;;;;;;;21.53;89.74;97732.88;1766340;80;21154;-91
2022/08/28 08:26:05;;;;;;;13.72;7.25;;;;;;;21.55;89.41;97736.11;1766081;80;21848;-85
2022/08/28 08:28:33;;;;;;;11.00;7.28;;;;;;;21.49;90.17;97735.57;1766049;80;20986;-92
2022/08/28 08:31:14;;;;;;;16.80;7.03;;;;;;;21.51;90.69;97739.34;1765430;80;20950;-86
2022/08/28 08:33:43;;;;;;;12.33;7.70;;;;;;;21.53;90.95;97741.16;1753399;81;20973;-91
2022/08/28 08:36:11;;;;;;;14.10;9.30;;;;;;;21.57;90.94;97745.61;1766454;80;21859;-91
2022/08/28 08:38:37;;;;;;;12.80;8.88;;;;;;;21.60;90.91;97746.26;1766460;81;20935;-90
2022/08/28 08:41:28;;;;;;;13.85;10.18;;;;;;;21.61;90.86;97751.98;1761922;80;20983;-89
2022/08/28 08:44:18;;;;;;;13.22;8.95;;;;;;;21.62;90.97;97753.61;1738136;81;21274;-91
2022/08/28 08:47:23;;;;;;;10.85;7.30;;;;;;;21.65;91.03;97757.02;1721949;80;21092;-91
2022/08/28 08:49:59;;;;;;;11.50;7.83;;;;;;;21.71;91.24;97756.75;1685746;83;21326;-88
2022/08/28 08:52:52;;;;;;;12.13;7.05;;;;;;;21.76;91.42;97751.74;1744733;79;21032;-86
2022/08/28 08:55:25;;;;;;;9.58;6.55;;;;;;;21.86;91.38;97755.31;1743845;81;21447;-85
2022/08/28 08:58:10;;;;;;;15.25;9.48;;;;;;;21.95;91.36;97764.19;1747024;81;20954;-85
2022/08/28 09:00:44;;;;;;;17.52;10.43;;;;;;;22.03;90.72;97765.73;1765767;81;20990;-92
2022/08/28 09:03:16;;;;;;;15.98;8.08;;;;;;;22.06;90.80;97765.82;1765562;81;21773;-91
2022/08/28 09:05:59;;;;;;;13.50;7.28;;;;;;;22.07;90.61;97765.23;1754672;81;20982;-85
2022/08/28 09:08:39;;;;;;;11.00;6.70;;;;;;;22.07;90.84;97759.17;1701494;82;21020;-92
2022/08/28 09:11:22;;;;;;;16.17;7.37;;;;;;;22.15;90.74;97761.50;1730851;81;21109;-86
2022/08/28 09:14:14;;;;;;;8.83;6.17;;;;;;;22.21;90.50;97764.17;1740374;81;21007;-86
2022/08/28 09:16:43;;;;;;;13.18;7.97;;;;;;;22.27;90.47;97761.94;1740339;81;21132;-85
2022/08/28 09:19:12;;;;;;;13.60;7.60;;;;;;;22.31;90.65;97762.24;1751138;81;20943;-90
2022/08/28 09:21:40;;;;;;;13.53;7.47;;;;;;;22.37;91.12;97764.11;1751094;81;20955;-92
2022/08/28 09:24:08;;;;;;;10.70;7.17;;;;;;;22.40;90.76;97762.82;1751099;81;21446;-90
2022/08/28 09:26:35;;;;;;;9.48;6.30;;;;;;;22.41;91.19;97761.66;1722308;81;20998;-91
2022/08/28 09:29:08;;;;;;;10.82;6.75;;;;;;;22.55;91.14;97767.23;1766193;81;21070;-91
2022/08/28 09:31:37;;;;;;;13.75;7.70;;;;;;;22.71;91.15;97765.18;1759078;80;21047;-86
2022/08/28 09:34:21;;;;;;;11.55;6.92;;;;;;;22.90;90.13;97769.34;1704759;82;20994;-85
2022/08/28 09:36:47;;;;;;;12.90;6.30;;;;;;;23.12;90.57;97764.98;1740687;82;21010;-92
2022/08/28 09:39:19;;;;;;;10.20;7.00;;;;;;;23.30;88.71;97767.47;1740607;82;20947;-92
2022/08/28 09:45:04;;;;;;;10.30;6.72;;;;;;;23.44;87.33;97773.03;1751236;82;21061;-92
2022/08/28 09:47:44;;;;;;;11.78;6.33;;;;;;;23.67;87.75;97773.01;1739019;80;21029;-92
2022/08/28 09:50:21;;;;;;;11.50;7.37;;;;;;;23.65;86.80;97774.77;1696578;83;21071;-87
2022/08/28 09:52:47;;;;;;;14.40;6.92;;;;;;;23.71;87.23;97773.29;1684471;84;21001;-86
2022/08/28 09:55:22;;;;;;;13.40;7.03;;;;;;;23.75;87.28;97773.33;1678726;84;20985;-90
2022/08/28 09:57:48;;;;;;;9.53;6.25;;;;;;;23.80;87.14;97767.49;1698216;84;20994;-91
2022/08/28 10:00:15;;;;;;;10.20;6.95;;;;;;;23.86;87.01;97769.57;1690922;84;21007;-91
2022/08/28 10:02:57;;;;;;;11.50;7.40;;;;;;;23.89;86.64;97772.17;1676139;84;21081;-88
2022/08/28 10:05:40;;;;;;;9.58;6.80;;;;;;;23.95;86.95;97774.83;1680306;84;21088;-86
2022/08/28 10:08:40;;;;;;;14.10;6.03;;;;;;;24.17;86.86;97774.53;1701919;84;21140;-86
2022/08/28 10:11:12;;;;;;;12.07;6.08;;;;;;;24.30;85.34;97777.28;1681339;84;21393;-85
2022/08/28 10:13:43;;;;;;;12.88;6.30;;;;;;;24.51;84.79;97775.98;1669633;83;21017;-91
2022/08/28 10:16:27;;;;;;;12.07;5.87;;;;;;;24.78;84.01;97769.75;1702503;83;20958;-86
2022/08/28 10:18:59;;;;;;;12.58;6.08;;;;;;;24.53;83.24;97779.19;1657598;84;20986;-85
2022/08/28 10:21:51;;;;;;;10.55;6.10;;;;;;;24.54;83.53;97776.04;1692635;84;21056;-87
2022/08/28 10:24:29;;;;;;;8.48;5.28;;;;;;;24.53;83.21;97771.67;1771554;81;21425;-86
2022/08/28 10:27:12;;;;;;;7.42;5.17;;;;;;;24.41;81.56;97771.91;1763674;80;21012;-86
2022/08/28 10:29:52;;;;;;;8.05;5.47;;;;;;;24.34;81.88;97775.37;1771920;80;20973;-86
2022/08/28 10:33:00;;;;;;;7.00;5.85;;;;;;;24.36;81.98;97777.80;1772387;80;20973;-86
2022/08/28 10:35:54;;;;;;;11.20;6.03;;;;;;;24.39;82.37;97779.21;1771588;81;21794;-90
2022/08/28 10:38:41;;;;;;;10.78;5.33;;;;;;;24.42;81.50;97773.50;1772144;80;20987;-86
2022/08/28 10:41:26;;;;;;;9.15;5.95;;;;;;;24.64;81.41;97771.20;1727036;81;21355;-92
2022/08/28 10:43:53;;;;;;;6.12;4.75;;;;;;;24.83;80.98;97773.58;1758750;81;20955;-87
2022/08/28 10:46:30;;;;;;;8.48;5.30;;;;;;;24.91;79.29;97773.28;1726046;82;20982;-92
2022/08/28 10:49:07;;;;;;;7.87;5.10;;;;;;;25.03;77.84;97770.25;1751508;80;21391;-91
2022/08/28 10:52:02;;;;;;;9.05;5.10;;;;;;;25.03;77.84;97770.25;1715774;82;21420;-86
2022/08/28 10:54:53;;;;;;;10.30;4.92;;;;;;;25.09;77.67;97767.94;1707922;82;21427;-91
2022/08/28 10:57:36;;;;;;;9.10;4.75;;;;;;;25.03;76.68;97770.25;1736424;82;21378;-86
2022/08/28 11:00:15;;;;;;;12.13;5.10;;;;;;;24.96;76.11;97774.33;1749459;81;21379;-90
2022/08/28 11:02:46;;;;;;;7.55;4.60;;;;;;;24.87;75.62;97774.43;1747721;80;21139;-91
2022/08/28 11:05:12;;;;;;;6.58;4.28;;;;;;;24.86;74.95;97779.14;1736311;81;21028;-86
2022/08/28 11:07:46;;;;;;;6.62;4.40;;;;;;;24.80;75.53;97776.53;1725723;81;21409;-91
2022/08/28 11:10:35;;;;;;;7.72;4.25;;;;;;;24.81;75.35;97775.34;1771110;81;20974;-86
2022/08/28 11:13:03;;;;;;;9.33;4.45;;;;;;;24.79;75.60;97775.53;1771960;81;21422;-91
2022/08/28 11:15:35;;;;;;;10.40;4.87;;;;;;;24.77;75.30;97778.66;1766115;81;21304;-88
2022/08/28 11:18:21;;;;;;;7.00;3.77;;;;;;;24.85;75.56;97774.78;1762121;81;21001;-90
2022/08/28 11:20:58;;;;;;;9.70;3.70;;;;;;;24.96;75.40;97777.69;1693278;84;21037;-91
2022/08/28 11:23:39;;;;;;;6.95;4.75;;;;;;;25.18;73.84;97776.73;1735413;81;21613;-91
2022/08/28 11:26:07;;;;;;;8.55;5.50;;;;;;;25.42;74.46;97774.58;1706250;82;21030;-86
2022/08/28 11:28:41;;;;;;;8.30;5.30;;;;;;;25.73;73.52;97774.06;1743382;81;21483;-91
2022/08/28 11:31:16;;;;;;;12.28;5.22;;;;;;;25.86;72.14;97780.09;1749689;81;20975;-91
2022/08/28 11:33:51;;;;;;;9.28;4.85;;;;;;;26.22;73.53;97774.15;1766760;80;21030;-87
2022/08/28 11:36:25;;;;;;;11.53;5.08;;;;;;;26.42;71.81;97773.30;1766440;80;20923;-91
2022/08/28 11:38:57;;;;;;;7.08;4.70;;;;;;;26.15;69.86;97768.58;1753696;81;21023;-91
2022/08/28 11:41:30;;;;;;;9.48;4.75;;;;;;;26.04;70.58;97763.55;1758423;81;21123;-86